Bookmark and Share
Track history (hours):
 

Gil Vicente

Last reported at 2014-Apr-24 10:34 UTC. Time now 2014-Apr-24 11:22 UTC.
Position N 38°41' W 009°08'.

Length 49 m.

Type: Passenger vessel. MMSI: 263701390.

NotesDate/timePositionNaut miles runAvg speedWind from/ knotsBaromVisibWave heightAir tempDewpointWater temp
2014-Apr-24 10:34N 38°41' W 009°08'3 2.9
2014-Apr-24 09:34N 38°39' W 009°05'2 2.4
2014-Apr-24 08:34N 38°40' W 009°08'2 2.2
2014-Apr-24 07:33N 38°42' W 009°08'1 1.1
2014-Apr-24 06:34N 38°41' W 009°08'3 3.1
2014-Apr-24 05:33N 38°39' W 009°05'0 0.0
2014-Apr-23 20:18N 38°39' W 009°05'3 4.0
2014-Apr-23 19:33N 38°41' W 009°08'2 2.4
2014-Apr-23 18:33N 38°39' W 009°06'3 3.1
2014-Apr-23 17:34N 38°42' W 009°08'0 0.5
2014-Apr-23 16:34N 38°42' W 009°08'1 0.7
2014-Apr-23 15:34N 38°42' W 009°08'4 3.6
2014-Apr-23 14:33N 38°39' W 009°05'2 1.7
2014-Apr-23 13:33N 38°40' W 009°07'0 0.3
2014-Apr-23 12:34N 38°40' W 009°06'1 1.3
2014-Apr-23 11:33N 38°39' W 009°05'0 0.0
2014-Apr-23 10:33N 38°39' W 009°05'3 2.8
2014-Apr-23 09:33N 38°41' W 009°08'3 2.9
2014-Apr-23 08:34N 38°39' W 009°05'1 0.8
2014-Apr-23 07:34N 38°39' W 009°06'3 3.3
2014-Apr-23 06:34N 38°42' W 009°08'0 0.3
2014-Apr-23 05:33N 38°42' W 009°08'0 0.0
2014-Apr-23 04:34N 38°42' W 009°08'4 4.2
2014-Apr-23 03:34N 38°39' W 009°05'0 0.0
2014-Apr-23 02:33N 38°39' W 009°05'0 0.0
2014-Apr-23 01:33N 38°39' W 009°05'0 0.4
2014-Apr-23 00:33N 38°39' W 009°05'0 0.0
2014-Apr-22 23:34N 38°39' W 009°05'0 0.5
2014-Apr-22 22:33N 38°39' W 009°05'2 1.7
2014-Apr-22 21:33N 38°40' W 009°07'0 0.0
2014-Apr-22 20:34N 38°40' W 009°07'2 1.7
2014-Apr-22 19:34N 38°39' W 009°05'0 0.0
2014-Apr-22 18:34N 38°39' W 009°05'1 0.9
2014-Apr-22 17:33N 38°39' W 009°06'3 3.3
2014-Apr-22 16:34N 38°42' W 009°08'4 3.9
2014-Apr-22 15:34N 38°39' W 009°05'0 0.0
2014-Apr-22 08:34N 38°39' W 009°05'0 0.1
2014-Apr-22 07:33N 38°39' W 009°05'0 0.0
2014-Apr-22 06:33N 38°39' W 009°05'0 0.0
2014-Apr-22 05:33N 38°39' W 009°05'0 0.0
2014-Apr-21 20:30N 38°39' W 009°05'0 0.0
2014-Apr-21 19:33N 38°39' W 009°05'3 3.3
2014-Apr-21 18:33N 38°42' W 009°08'2 1.7
2014-Apr-21 17:33N 38°40' W 009°07'2 1.9
2014-Apr-21 16:34N 38°39' W 009°05'0 0.0
2014-Apr-21 15:34N 38°39' W 009°05'0 0.2
2014-Apr-21 14:34N 38°39' W 009°05'0 0.0
2014-Apr-21 09:28N 38°39' W 009°05'4 4.4
2014-Apr-21 08:33N 38°42' W 009°08'0 0.0
2014-Apr-21 07:33N 38°42' W 009°08'3 2.6
2014-Apr-21 06:34N 38°40' W 009°07'  
2014-Apr-16 08:34N 38°40' W 009°07'0 0.3
2014-Apr-16 07:33N 38°40' W 009°07'2 1.9
2014-Apr-16 06:33N 38°39' W 009°05'0 0.0
2014-Apr-16 05:34N 38°39' W 009°05'0 0.0
2014-Apr-16 04:33N 38°39' W 009°05'4 0.6
2014-Apr-15 22:34N 38°42' W 009°08'1 1.0
2014-Apr-15 21:33N 38°41' W 009°08'0 0.2
2014-Apr-15 20:33N 38°41' W 009°08'3 3.0
2014-Apr-15 19:33N 38°39' W 009°05'1 0.7
2014-Apr-15 18:34N 38°39' W 009°06'1 0.7
2014-Apr-15 17:33N 38°39' W 009°05'1 0.7
2014-Apr-15 16:34N 38°39' W 009°06'1 0.6
2014-Apr-15 15:33N 38°39' W 009°05'0 0.0
2014-Apr-15 06:34N 38°39' W 009°05'0 0.3
2014-Apr-15 05:34N 38°39' W 009°05'4 0.3
2014-Apr-14 18:34N 38°42' W 009°08'0 0.4
2014-Apr-14 17:34N 38°42' W 009°08'1 0.8
2014-Apr-14 16:34N 38°42' W 009°08'3 3.3
2014-Apr-14 15:34N 38°39' W 009°05'4 3.8
2014-Apr-14 14:34N 38°42' W 009°08'1 1.5
2014-Apr-14 13:34N 38°41' W 009°08'0 0.0
2014-Apr-14 11:34N 38°41' W 009°08'  

Dump ship's entire track history

sailing weather and tide predictions

Gil Vicente — CSKG — position and weather